International Virtual Aviation Organisation

Russian Federation and Kazakhstan MCD

 
ULAA 131200Z 12005MPS 090V150 9999 BKN021 M08/M08 Q1025 R08/490344 NOSIG RMK QFE767/1023
QNH:(hPa/inHg/mmHg)1025 / 30.27 / 769
QFE:(hPa/inHg/mmHg)1023 / 30.20 / 767
Temperature-8
Dew Point-8
Visibility> 10000
Weather
Cloud CoverBKN (2100);
Transition Height800 m./2700 ft.
Transition LevelFL40
SQUAWK